sensor_id;sensor_type;location;lat;lon;timestamp;temperature;humidity
53752;DHT22;41095;53.090;6.692;2023-07-13T00:01:16;16.20;99.90
53752;DHT22;41095;53.090;6.692;2023-07-13T00:03:42;16.20;99.90
53752;DHT22;41095;53.090;6.692;2023-07-13T00:06:08;16.10;99.90
53752;DHT22;41095;53.090;6.692;2023-07-13T00:08:35;16.00;99.90
53752;DHT22;41095;53.090;6.692;2023-07-13T00:11:02;16.00;99.90
53752;DHT22;41095;53.090;6.692;2023-07-13T00:13:29;16.00;99.90
53752;DHT22;41095;53.090;6.692;2023-07-13T00:15:57;16.00;99.90
53752;DHT22;41095;53.090;6.692;2023-07-13T00:18:23;16.00;99.90
53752;DHT22;41095;53.090;6.692;2023-07-13T00:20:49;16.00;99.90
53752;DHT22;41095;53.090;6.692;2023-07-13T00:23:14;16.00;99.90
53752;DHT22;41095;53.090;6.692;2023-07-13T00:25:40;16.00;99.90
53752;DHT22;41095;53.090;6.692;2023-07-13T00:28:06;16.00;99.90
53752;DHT22;41095;53.090;6.692;2023-07-13T00:30:31;16.00;99.90
53752;DHT22;41095;53.090;6.692;2023-07-13T00:32:57;16.00;99.90
53752;DHT22;41095;53.090;6.692;2023-07-13T00:35:23;16.00;99.90
53752;DHT22;41095;53.090;6.692;2023-07-13T00:37:49;16.00;99.90
53752;DHT22;41095;53.090;6.692;2023-07-13T00:40:16;16.10;99.90
53752;DHT22;41095;53.090;6.692;2023-07-13T00:42:42;16.10;99.90
53752;DHT22;41095;53.090;6.692;2023-07-13T00:47:33;16.20;99.90
53752;DHT22;41095;53.090;6.692;2023-07-13T00:50:00;16.20;99.90
53752;DHT22;41095;53.090;6.692;2023-07-13T00:52:26;16.20;99.90
53752;DHT22;41095;53.090;6.692;2023-07-13T00:54:54;16.30;99.90
53752;DHT22;41095;53.090;6.692;2023-07-13T00:57:20;16.30;99.90
53752;DHT22;41095;53.090;6.692;2023-07-13T00:59:50;16.40;99.90
53752;DHT22;41095;53.090;6.692;2023-07-13T01:02:17;16.40;99.90
53752;DHT22;41095;53.090;6.692;2023-07-13T01:04:43;16.40;99.90
53752;DHT22;41095;53.090;6.692;2023-07-13T01:07:10;16.50;99.90
53752;DHT22;41095;53.090;6.692;2023-07-13T01:09:37;16.50;99.90
53752;DHT22;41095;53.090;6.692;2023-07-13T01:12:03;16.50;99.90
53752;DHT22;41095;53.090;6.692;2023-07-13T01:14:30;16.50;99.90
53752;DHT22;41095;53.090;6.692;2023-07-13T01:16:55;16.50;99.90
53752;DHT22;41095;53.090;6.692;2023-07-13T01:19:42;16.50;99.90
53752;DHT22;41095;53.090;6.692;2023-07-13T01:24:37;16.50;99.90
53752;DHT22;41095;53.090;6.692;2023-07-13T01:27:05;16.50;99.90
53752;DHT22;41095;53.090;6.692;2023-07-13T01:29:33;16.50;99.90
53752;DHT22;41095;53.090;6.692;2023-07-13T01:31:59;16.50;99.90
53752;DHT22;41095;53.090;6.692;2023-07-13T01:34:26;16.50;99.90
53752;DHT22;41095;53.090;6.692;2023-07-13T01:36:52;16.50;99.90
53752;DHT22;41095;53.090;6.692;2023-07-13T01:39:21;16.50;99.90
53752;DHT22;41095;53.090;6.692;2023-07-13T01:41:47;16.50;99.90
53752;DHT22;41095;53.090;6.692;2023-07-13T01:44:12;16.50;99.90
53752;DHT22;41095;53.090;6.692;2023-07-13T01:46:38;16.60;99.90
53752;DHT22;41095;53.090;6.692;2023-07-13T01:49:04;16.60;99.90
53752;DHT22;41095;53.090;6.692;2023-07-13T01:51:29;16.60;99.90
53752;DHT22;41095;53.090;6.692;2023-07-13T01:53:55;16.60;99.90
53752;DHT22;41095;53.090;6.692;2023-07-13T01:56:21;16.60;99.90
53752;DHT22;41095;53.090;6.692;2023-07-13T01:58:47;16.60;99.90
53752;DHT22;41095;53.090;6.692;2023-07-13T02:01:13;16.60;99.90
53752;DHT22;41095;53.090;6.692;2023-07-13T02:03:39;16.60;99.90
53752;DHT22;41095;53.090;6.692;2023-07-13T02:06:05;16.60;99.90
53752;DHT22;41095;53.090;6.692;2023-07-13T02:08:33;16.60;99.90
53752;DHT22;41095;53.090;6.692;2023-07-13T02:10:59;16.50;99.90
53752;DHT22;41095;53.090;6.692;2023-07-13T02:13:25;16.50;99.90
53752;DHT22;41095;53.090;6.692;2023-07-13T02:15:51;16.50;99.90
53752;DHT22;41095;53.090;6.692;2023-07-13T02:18:17;16.50;99.90
53752;DHT22;41095;53.090;6.692;2023-07-13T02:20:43;16.50;99.90
53752;DHT22;41095;53.090;6.692;2023-07-13T02:23:09;16.50;99.90
53752;DHT22;41095;53.090;6.692;2023-07-13T02:25:35;16.50;99.90
53752;DHT22;41095;53.090;6.692;2023-07-13T02:28:00;16.50;99.90
53752;DHT22;41095;53.090;6.692;2023-07-13T02:30:27;16.50;99.90
53752;DHT22;41095;53.090;6.692;2023-07-13T02:32:55;16.50;99.90
53752;DHT22;41095;53.090;6.692;2023-07-13T02:35:21;16.50;99.90
53752;DHT22;41095;53.090;6.692;2023-07-13T02:37:47;16.50;99.90
53752;DHT22;41095;53.090;6.692;2023-07-13T02:40:13;16.50;99.90
53752;DHT22;41095;53.090;6.692;2023-07-13T02:42:39;16.40;99.90
53752;DHT22;41095;53.090;6.692;2023-07-13T02:45:05;16.40;99.90
53752;DHT22;41095;53.090;6.692;2023-07-13T02:47:32;16.40;99.90
53752;DHT22;41095;53.090;6.692;2023-07-13T02:55:16;16.30;99.90
53752;DHT22;41095;53.090;6.692;2023-07-13T02:57:44;16.20;99.90
53752;DHT22;41095;53.090;6.692;2023-07-13T03:00:10;16.20;99.90
53752;DHT22;41095;53.090;6.692;2023-07-13T03:02:35;16.10;99.90
53752;DHT22;41095;53.090;6.692;2023-07-13T03:05:01;16.10;99.90
53752;DHT22;41095;53.090;6.692;2023-07-13T03:07:27;16.10;99.90
53752;DHT22;41095;53.090;6.692;2023-07-13T03:09:57;16.00;99.90
53752;DHT22;41095;53.090;6.692;2023-07-13T03:12:24;16.00;99.90
53752;DHT22;41095;53.090;6.692;2023-07-13T03:14:50;16.00;99.90
53752;DHT22;41095;53.090;6.692;2023-07-13T03:17:16;15.90;99.90
53752;DHT22;41095;53.090;6.692;2023-07-13T03:19:42;15.80;99.90
53752;DHT22;41095;53.090;6.692;2023-07-13T03:22:07;15.80;99.90
53752;DHT22;41095;53.090;6.692;2023-07-13T03:24:34;15.80;99.90
53752;DHT22;41095;53.090;6.692;2023-07-13T03:27:04;15.80;99.90
53752;DHT22;41095;53.090;6.692;2023-07-13T03:29:29;15.70;99.90
53752;DHT22;41095;53.090;6.692;2023-07-13T03:31:55;15.70;99.90
53752;DHT22;41095;53.090;6.692;2023-07-13T03:34:21;15.70;99.90
53752;DHT22;41095;53.090;6.692;2023-07-13T03:36:46;15.60;99.90
53752;DHT22;41095;53.090;6.692;2023-07-13T03:39:12;15.60;99.90
53752;DHT22;41095;53.090;6.692;2023-07-13T03:41:38;15.60;99.90
53752;DHT22;41095;53.090;6.692;2023-07-13T03:44:04;15.60;99.90
53752;DHT22;41095;53.090;6.692;2023-07-13T03:46:30;15.60;99.90
53752;DHT22;41095;53.090;6.692;2023-07-13T03:48:56;15.60;99.90
53752;DHT22;41095;53.090;6.692;2023-07-13T03:51:22;15.60;99.90
53752;DHT22;41095;53.090;6.692;2023-07-13T03:53:48;15.60;99.90
53752;DHT22;41095;53.090;6.692;2023-07-13T03:56:14;15.60;99.90
53752;DHT22;41095;53.090;6.692;2023-07-13T03:58:42;15.60;99.90
53752;DHT22;41095;53.090;6.692;2023-07-13T04:01:10;15.70;99.90
53752;DHT22;41095;53.090;6.692;2023-07-13T04:03:36;15.70;99.90
53752;DHT22;41095;53.090;6.692;2023-07-13T04:06:03;15.80;99.90
53752;DHT22;41095;53.090;6.692;2023-07-13T04:08:32;15.80;99.90
53752;DHT22;41095;53.090;6.692;2023-07-13T04:10:58;15.80;99.90
53752;DHT22;41095;53.090;6.692;2023-07-13T04:13:25;15.80;99.90
53752;DHT22;41095;53.090;6.692;2023-07-13T04:15:52;15.80;99.90
53752;DHT22;41095;53.090;6.692;2023-07-13T04:18:18;15.90;99.90
53752;DHT22;41095;53.090;6.692;2023-07-13T04:20:46;15.90;99.90
53752;DHT22;41095;53.090;6.692;2023-07-13T04:23:11;16.00;99.90
53752;DHT22;41095;53.090;6.692;2023-07-13T04:25:37;16.00;99.90
53752;DHT22;41095;53.090;6.692;2023-07-13T04:28:03;16.00;99.90
53752;DHT22;41095;53.090;6.692;2023-07-13T04:30:29;16.00;99.90
53752;DHT22;41095;53.090;6.692;2023-07-13T04:32:55;16.00;99.90
53752;DHT22;41095;53.090;6.692;2023-07-13T04:35:21;16.10;99.90
53752;DHT22;41095;53.090;6.692;2023-07-13T04:37:48;16.10;99.90
53752;DHT22;41095;53.090;6.692;2023-07-13T04:40:19;16.20;99.90
53752;DHT22;41095;53.090;6.692;2023-07-13T04:42:46;16.20;99.90
53752;DHT22;41095;53.090;6.692;2023-07-13T04:45:13;16.20;99.90
53752;DHT22;41095;53.090;6.692;2023-07-13T04:47:40;16.30;99.90
53752;DHT22;41095;53.090;6.692;2023-07-13T04:50:07;16.30;99.90
53752;DHT22;41095;53.090;6.692;2023-07-13T04:52:33;16.40;99.90
53752;DHT22;41095;53.090;6.692;2023-07-13T04:54:59;16.40;99.90
53752;DHT22;41095;53.090;6.692;2023-07-13T04:57:26;16.50;99.90
53752;DHT22;41095;53.090;6.692;2023-07-13T04:59:52;16.60;99.90
53752;DHT22;41095;53.090;6.692;2023-07-13T05:02:18;16.70;99.90
53752;DHT22;41095;53.090;6.692;2023-07-13T05:04:47;16.70;99.90
53752;DHT22;41095;53.090;6.692;2023-07-13T05:07:13;16.70;99.90
53752;DHT22;41095;53.090;6.692;2023-07-13T05:09:39;16.80;99.90
53752;DHT22;41095;53.090;6.692;2023-07-13T05:12:07;16.90;99.90
53752;DHT22;41095;53.090;6.692;2023-07-13T05:14:32;16.90;99.90
53752;DHT22;41095;53.090;6.692;2023-07-13T05:16:58;17.00;99.90
53752;DHT22;41095;53.090;6.692;2023-07-13T05:19:24;17.00;99.90
53752;DHT22;41095;53.090;6.692;2023-07-13T05:21:50;17.00;99.90
53752;DHT22;41095;53.090;6.692;2023-07-13T05:24:15;17.00;99.90
53752;DHT22;41095;53.090;6.692;2023-07-13T05:26:41;17.10;99.90
53752;DHT22;41095;53.090;6.692;2023-07-13T05:29:07;17.10;99.90
53752;DHT22;41095;53.090;6.692;2023-07-13T05:31:32;17.10;99.90
53752;DHT22;41095;53.090;6.692;2023-07-13T05:33:58;17.20;99.90
53752;DHT22;41095;53.090;6.692;2023-07-13T05:36:24;17.20;99.90
53752;DHT22;41095;53.090;6.692;2023-07-13T05:38:49;17.30;99.90
53752;DHT22;41095;53.090;6.692;2023-07-13T05:41:15;17.30;99.90
53752;DHT22;41095;53.090;6.692;2023-07-13T05:43:40;17.40;99.90
53752;DHT22;41095;53.090;6.692;2023-07-13T05:46:06;17.40;99.90
53752;DHT22;41095;53.090;6.692;2023-07-13T05:48:32;17.50;99.90
53752;DHT22;41095;53.090;6.692;2023-07-13T05:50:58;17.60;99.90
53752;DHT22;41095;53.090;6.692;2023-07-13T05:53:23;17.60;99.90
53752;DHT22;41095;53.090;6.692;2023-07-13T05:55:49;17.70;99.90
53752;DHT22;41095;53.090;6.692;2023-07-13T05:58:19;17.80;99.90
53752;DHT22;41095;53.090;6.692;2023-07-13T06:00:45;17.90;99.90
53752;DHT22;41095;53.090;6.692;2023-07-13T06:03:11;17.90;99.90
53752;DHT22;41095;53.090;6.692;2023-07-13T06:05:38;18.10;99.90
53752;DHT22;41095;53.090;6.692;2023-07-13T06:08:04;18.10;99.90
53752;DHT22;41095;53.090;6.692;2023-07-13T06:10:33;19.10;99.90
53752;DHT22;41095;53.090;6.692;2023-07-13T06:12:59;17.50;99.90
53752;DHT22;41095;53.090;6.692;2023-07-13T06:15:24;18.40;99.90
53752;DHT22;41095;53.090;6.692;2023-07-13T06:17:50;18.60;99.90
53752;DHT22;41095;53.090;6.692;2023-07-13T06:20:16;18.70;99.90
53752;DHT22;41095;53.090;6.692;2023-07-13T06:22:41;18.70;99.90
53752;DHT22;41095;53.090;6.692;2023-07-13T06:25:07;18.70;99.90
53752;DHT22;41095;53.090;6.692;2023-07-13T06:27:33;18.80;99.90
53752;DHT22;41095;53.090;6.692;2023-07-13T06:37:18;22.50;99.90
53752;DHT22;41095;53.090;6.692;2023-07-13T06:39:43;23.20;99.90
53752;DHT22;41095;53.090;6.692;2023-07-13T06:42:09;23.80;99.90
53752;DHT22;41095;53.090;6.692;2023-07-13T06:44:35;23.90;99.90
53752;DHT22;41095;53.090;6.692;2023-07-13T06:47:00;24.50;99.90
53752;DHT22;41095;53.090;6.692;2023-07-13T06:49:26;24.70;99.90
53752;DHT22;41095;53.090;6.692;2023-07-13T06:51:52;25.20;99.90
53752;DHT22;41095;53.090;6.692;2023-07-13T06:54:17;25.30;99.90
53752;DHT22;41095;53.090;6.692;2023-07-13T06:56:43;25.50;98.20
53752;DHT22;41095;53.090;6.692;2023-07-13T06:59:09;25.80;97.80
53752;DHT22;41095;53.090;6.692;2023-07-13T07:01:34;26.00;98.70
53752;DHT22;41095;53.090;6.692;2023-07-13T07:04:00;26.40;98.90
53752;DHT22;41095;53.090;6.692;2023-07-13T07:06:26;26.50;97.50
53752;DHT22;41095;53.090;6.692;2023-07-13T07:08:52;26.70;97.70
53752;DHT22;41095;53.090;6.692;2023-07-13T07:11:20;27.10;96.90
53752;DHT22;41095;53.090;6.692;2023-07-13T07:13:48;27.80;93.70
53752;DHT22;41095;53.090;6.692;2023-07-13T07:16:14;28.00;95.80
53752;DHT22;41095;53.090;6.692;2023-07-13T07:18:40;27.30;95.40
53752;DHT22;41095;53.090;6.692;2023-07-13T07:21:05;26.80;95.70
53752;DHT22;41095;53.090;6.692;2023-07-13T07:23:31;26.40;95.80
53752;DHT22;41095;53.090;6.692;2023-07-13T07:25:57;25.60;96.00
53752;DHT22;41095;53.090;6.692;2023-07-13T07:28:24;24.70;96.50
53752;DHT22;41095;53.090;6.692;2023-07-13T07:30:52;23.80;97.30
53752;DHT22;41095;53.090;6.692;2023-07-13T07:33:18;23.10;97.80
53752;DHT22;41095;53.090;6.692;2023-07-13T07:35:44;22.60;98.20
53752;DHT22;41095;53.090;6.692;2023-07-13T07:38:10;22.20;98.40
53752;DHT22;41095;53.090;6.692;2023-07-13T07:40:40;22.20;98.80
53752;DHT22;41095;53.090;6.692;2023-07-13T07:43:10;22.10;98.40
53752;DHT22;41095;53.090;6.692;2023-07-13T07:45:38;22.00;98.20
53752;DHT22;41095;53.090;6.692;2023-07-13T07:48:04;22.00;98.40
53752;DHT22;41095;53.090;6.692;2023-07-13T07:50:31;21.80;98.40
53752;DHT22;41095;53.090;6.692;2023-07-13T07:52:57;22.60;98.20
53752;DHT22;41095;53.090;6.692;2023-07-13T07:55:23;23.90;97.40
53752;DHT22;41095;53.090;6.692;2023-07-13T07:57:50;24.30;97.10
53752;DHT22;41095;53.090;6.692;2023-07-13T08:00:16;24.20;96.60
53752;DHT22;41095;53.090;6.692;2023-07-13T08:02:42;24.10;96.70
53752;DHT22;41095;53.090;6.692;2023-07-13T08:05:09;24.20;96.70
53752;DHT22;41095;53.090;6.692;2023-07-13T08:07:36;23.90;96.30
53752;DHT22;41095;53.090;6.692;2023-07-13T08:10:02;23.50;96.60
53752;DHT22;41095;53.090;6.692;2023-07-13T08:12:28;23.20;97.00
53752;DHT22;41095;53.090;6.692;2023-07-13T08:14:53;22.80;97.20
53752;DHT22;41095;53.090;6.692;2023-07-13T08:17:23;22.50;97.40
53752;DHT22;41095;53.090;6.692;2023-07-13T08:19:49;22.10;97.60
53752;DHT22;41095;53.090;6.692;2023-07-13T08:22:14;22.00;97.90
53752;DHT22;41095;53.090;6.692;2023-07-13T08:24:40;22.10;98.10
53752;DHT22;41095;53.090;6.692;2023-07-13T08:27:08;22.70;97.70
53752;DHT22;41095;53.090;6.692;2023-07-13T08:29:33;23.10;97.30
53752;DHT22;41095;53.090;6.692;2023-07-13T08:31:59;23.20;97.50
53752;DHT22;41095;53.090;6.692;2023-07-13T08:34:25;23.10;97.20
53752;DHT22;41095;53.090;6.692;2023-07-13T08:36:51;22.80;97.30
53752;DHT22;41095;53.090;6.692;2023-07-13T08:39:17;22.40;97.60
53752;DHT22;41095;53.090;6.692;2023-07-13T08:41:46;22.10;98.70
53752;DHT22;41095;53.090;6.692;2023-07-13T08:44:23;21.80;99.60
53752;DHT22;41095;53.090;6.692;2023-07-13T08:46:54;21.50;99.90
53752;DHT22;41095;53.090;6.692;2023-07-13T08:49:22;21.40;99.90
53752;DHT22;41095;53.090;6.692;2023-07-13T08:52:01;21.20;99.90
53752;DHT22;41095;53.090;6.692;2023-07-13T08:54:49;21.00;99.90
53752;DHT22;41095;53.090;6.692;2023-07-13T08:57:19;20.70;99.90
53752;DHT22;41095;53.090;6.692;2023-07-13T08:59:45;20.40;99.90
53752;DHT22;41095;53.090;6.692;2023-07-13T09:12:52;19.30;99.90
53752;DHT22;41095;53.090;6.692;2023-07-13T09:15:35;20.60;99.90
53752;DHT22;41095;53.090;6.692;2023-07-13T09:23:17;22.40;98.00
53752;DHT22;41095;53.090;6.692;2023-07-13T09:25:47;22.30;98.10
53752;DHT22;41095;53.090;6.692;2023-07-13T09:31:06;23.50;96.90
53752;DHT22;41095;53.090;6.692;2023-07-13T09:33:32;24.00;96.40
53752;DHT22;41095;53.090;6.692;2023-07-13T09:36:00;24.30;97.40
53752;DHT22;41095;53.090;6.692;2023-07-13T09:38:29;24.70;97.70
53752;DHT22;41095;53.090;6.692;2023-07-13T09:41:26;25.40;97.70
53752;DHT22;41095;53.090;6.692;2023-07-13T09:44:11;26.00;95.60
53752;DHT22;41095;53.090;6.692;2023-07-13T09:46:40;26.30;94.90
53752;DHT22;41095;53.090;6.692;2023-07-13T09:49:10;26.80;96.00
53752;DHT22;41095;53.090;6.692;2023-07-13T09:51:45;27.00;96.40
53752;DHT22;41095;53.090;6.692;2023-07-13T09:54:19;26.90;96.20
53752;DHT22;41095;53.090;6.692;2023-07-13T09:56:45;26.70;95.70
53752;DHT22;41095;53.090;6.692;2023-07-13T09:59:36;26.20;96.20
53752;DHT22;41095;53.090;6.692;2023-07-13T10:02:29;25.40;96.20
53752;DHT22;41095;53.090;6.692;2023-07-13T10:05:11;24.70;98.60
53752;DHT22;41095;53.090;6.692;2023-07-13T10:07:43;24.00;99.30
53752;DHT22;41095;53.090;6.692;2023-07-13T10:10:20;23.30;99.90
53752;DHT22;41095;53.090;6.692;2023-07-13T10:12:47;22.50;99.90
53752;DHT22;41095;53.090;6.692;2023-07-13T10:15:16;22.00;99.90
53752;DHT22;41095;53.090;6.692;2023-07-13T10:17:43;21.60;99.90
53752;DHT22;41095;53.090;6.692;2023-07-13T10:20:09;21.20;99.90
53752;DHT22;41095;53.090;6.692;2023-07-13T10:23:02;20.90;99.90
53752;DHT22;41095;53.090;6.692;2023-07-13T10:25:33;20.80;99.90
53752;DHT22;41095;53.090;6.692;2023-07-13T10:30:53;20.90;99.90
53752;DHT22;41095;53.090;6.692;2023-07-13T10:33:20;20.90;99.90
53752;DHT22;41095;53.090;6.692;2023-07-13T10:35:47;20.90;99.90
53752;DHT22;41095;53.090;6.692;2023-07-13T10:38:22;21.10;99.90
53752;DHT22;41095;53.090;6.692;2023-07-13T10:41:06;21.70;99.90
53752;DHT22;41095;53.090;6.692;2023-07-13T10:43:36;22.40;99.90
53752;DHT22;41095;53.090;6.692;2023-07-13T10:46:08;23.10;99.90
53752;DHT22;41095;53.090;6.692;2023-07-13T10:48:35;22.70;99.90
53752;DHT22;41095;53.090;6.692;2023-07-13T10:51:04;22.30;99.90
53752;DHT22;41095;53.090;6.692;2023-07-13T10:53:33;22.10;99.90
53752;DHT22;41095;53.090;6.692;2023-07-13T10:56:01;21.80;99.90
53752;DHT22;41095;53.090;6.692;2023-07-13T10:58:37;22.00;99.90
53752;DHT22;41095;53.090;6.692;2023-07-13T11:03:34;23.00;99.90
53752;DHT22;41095;53.090;6.692;2023-07-13T11:18:45;23.80;99.90
53752;DHT22;41095;53.090;6.692;2023-07-13T11:23:51;23.40;99.90
53752;DHT22;41095;53.090;6.692;2023-07-13T11:26:52;23.50;99.90
53752;DHT22;41095;53.090;6.692;2023-07-13T11:31:51;23.70;99.90
53752;DHT22;41095;53.090;6.692;2023-07-13T11:34:23;23.60;99.10
53752;DHT22;41095;53.090;6.692;2023-07-13T11:36:52;23.70;99.90
53752;DHT22;41095;53.090;6.692;2023-07-13T11:39:21;23.70;99.90
53752;DHT22;41095;53.090;6.692;2023-07-13T11:41:54;23.70;98.70
53752;DHT22;41095;53.090;6.692;2023-07-13T11:44:24;23.90;98.50
53752;DHT22;41095;53.090;6.692;2023-07-13T11:46:58;24.00;98.00
53752;DHT22;41095;53.090;6.692;2023-07-13T11:49:31;24.10;97.40
53752;DHT22;41095;53.090;6.692;2023-07-13T11:51:58;23.80;95.10
53752;DHT22;41095;53.090;6.692;2023-07-13T11:54:26;23.60;96.50
53752;DHT22;41095;53.090;6.692;2023-07-13T11:56:54;23.40;96.20
53752;DHT22;41095;53.090;6.692;2023-07-13T11:59:20;23.60;96.60
53752;DHT22;41095;53.090;6.692;2023-07-13T12:01:51;23.80;96.70
53752;DHT22;41095;53.090;6.692;2023-07-13T12:04:26;23.80;95.80
53752;DHT22;41095;53.090;6.692;2023-07-13T12:06:57;23.40;94.30
53752;DHT22;41095;53.090;6.692;2023-07-13T12:09:26;23.10;94.00
53752;DHT22;41095;53.090;6.692;2023-07-13T12:11:53;23.10;95.60
53752;DHT22;41095;53.090;6.692;2023-07-13T12:14:19;23.20;95.50
53752;DHT22;41095;53.090;6.692;2023-07-13T12:16:46;23.50;95.50
53752;DHT22;41095;53.090;6.692;2023-07-13T12:19:21;23.60;94.40
53752;DHT22;41095;53.090;6.692;2023-07-13T12:21:48;23.40;93.30
53752;DHT22;41095;53.090;6.692;2023-07-13T12:24:19;23.30;93.60
53752;DHT22;41095;53.090;6.692;2023-07-13T12:27:13;23.60;94.70
53752;DHT22;41095;53.090;6.692;2023-07-13T12:30:05;23.60;93.50
53752;DHT22;41095;53.090;6.692;2023-07-13T12:32:31;23.70;94.10
53752;DHT22;41095;53.090;6.692;2023-07-13T12:35:14;24.00;93.60
53752;DHT22;41095;53.090;6.692;2023-07-13T12:37:46;24.10;93.00
53752;DHT22;41095;53.090;6.692;2023-07-13T12:40:20;24.20;93.30
53752;DHT22;41095;53.090;6.692;2023-07-13T12:42:48;24.40;93.00
53752;DHT22;41095;53.090;6.692;2023-07-13T12:45:22;24.50;93.40
53752;DHT22;41095;53.090;6.692;2023-07-13T12:47:59;24.70;92.70
53752;DHT22;41095;53.090;6.692;2023-07-13T12:50:37;24.60;92.40
53752;DHT22;41095;53.090;6.692;2023-07-13T12:53:05;24.30;91.90
53752;DHT22;41095;53.090;6.692;2023-07-13T12:55:43;23.90;92.30
53752;DHT22;41095;53.090;6.692;2023-07-13T12:58:17;23.70;92.80
53752;DHT22;41095;53.090;6.692;2023-07-13T13:00:49;23.40;92.50
53752;DHT22;41095;53.090;6.692;2023-07-13T13:03:38;23.60;92.70
53752;DHT22;41095;53.090;6.692;2023-07-13T13:06:24;23.90;92.40
53752;DHT22;41095;53.090;6.692;2023-07-13T13:08:53;24.10;92.90
53752;DHT22;41095;53.090;6.692;2023-07-13T13:11:20;23.70;91.90
53752;DHT22;41095;53.090;6.692;2023-07-13T13:13:46;23.80;92.30
53752;DHT22;41095;53.090;6.692;2023-07-13T13:16:23;24.00;92.20
53752;DHT22;41095;53.090;6.692;2023-07-13T13:18:51;24.70;91.60
53752;DHT22;41095;53.090;6.692;2023-07-13T13:21:18;24.20;91.70
53752;DHT22;41095;53.090;6.692;2023-07-13T13:23:45;24.10;91.50
53752;DHT22;41095;53.090;6.692;2023-07-13T13:26:15;23.80;91.70
53752;DHT22;41095;53.090;6.692;2023-07-13T13:28:42;23.60;92.50
53752;DHT22;41095;53.090;6.692;2023-07-13T13:31:08;23.60;92.50
53752;DHT22;41095;53.090;6.692;2023-07-13T13:33:38;23.40;92.20
53752;DHT22;41095;53.090;6.692;2023-07-13T13:36:20;23.30;92.50
53752;DHT22;41095;53.090;6.692;2023-07-13T13:38:49;23.70;92.50
53752;DHT22;41095;53.090;6.692;2023-07-13T13:41:16;23.80;92.20
53752;DHT22;41095;53.090;6.692;2023-07-13T13:43:43;23.80;91.90
53752;DHT22;41095;53.090;6.692;2023-07-13T13:46:25;23.60;91.50
53752;DHT22;41095;53.090;6.692;2023-07-13T13:48:51;23.80;92.20
53752;DHT22;41095;53.090;6.692;2023-07-13T13:51:21;23.90;91.90
53752;DHT22;41095;53.090;6.692;2023-07-13T13:53:47;23.80;90.80
53752;DHT22;41095;53.090;6.692;2023-07-13T13:56:18;23.70;92.10
53752;DHT22;41095;53.090;6.692;2023-07-13T13:58:44;23.30;91.30
53752;DHT22;41095;53.090;6.692;2023-07-13T14:01:20;23.10;91.60
53752;DHT22;41095;53.090;6.692;2023-07-13T14:03:47;23.10;90.80
53752;DHT22;41095;53.090;6.692;2023-07-13T14:06:19;23.10;91.60
53752;DHT22;41095;53.090;6.692;2023-07-13T14:08:45;23.30;91.80
53752;DHT22;41095;53.090;6.692;2023-07-13T14:11:18;23.40;91.40
53752;DHT22;41095;53.090;6.692;2023-07-13T14:13:56;23.60;91.40
53752;DHT22;41095;53.090;6.692;2023-07-13T14:16:27;23.80;90.70
53752;DHT22;41095;53.090;6.692;2023-07-13T14:18:55;23.80;91.00
53752;DHT22;41095;53.090;6.692;2023-07-13T14:21:24;23.80;91.00
53752;DHT22;41095;53.090;6.692;2023-07-13T14:23:50;24.10;91.10
53752;DHT22;41095;53.090;6.692;2023-07-13T14:26:26;24.10;90.80
53752;DHT22;41095;53.090;6.692;2023-07-13T14:28:56;24.40;91.10
53752;DHT22;41095;53.090;6.692;2023-07-13T14:31:25;24.30;90.90
53752;DHT22;41095;53.090;6.692;2023-07-13T14:33:51;24.30;91.00
53752;DHT22;41095;53.090;6.692;2023-07-13T14:36:25;24.20;91.60
53752;DHT22;41095;53.090;6.692;2023-07-13T14:38:52;24.10;91.50
53752;DHT22;41095;53.090;6.692;2023-07-13T14:41:19;24.00;91.40
53752;DHT22;41095;53.090;6.692;2023-07-13T14:43:44;23.80;91.20
53752;DHT22;41095;53.090;6.692;2023-07-13T14:46:27;23.70;91.60
53752;DHT22;41095;53.090;6.692;2023-07-13T14:49:02;23.50;90.60
53752;DHT22;41095;53.090;6.692;2023-07-13T14:51:29;23.60;90.70
53752;DHT22;41095;53.090;6.692;2023-07-13T14:53:55;23.70;91.20
53752;DHT22;41095;53.090;6.692;2023-07-13T14:56:21;23.90;90.50
53752;DHT22;41095;53.090;6.692;2023-07-13T14:58:47;24.10;91.20
53752;DHT22;41095;53.090;6.692;2023-07-13T15:01:14;24.10;91.00
53752;DHT22;41095;53.090;6.692;2023-07-13T15:03:47;23.80;91.20
53752;DHT22;41095;53.090;6.692;2023-07-13T15:06:13;23.80;90.40
53752;DHT22;41095;53.090;6.692;2023-07-13T15:08:39;23.60;90.80
53752;DHT22;41095;53.090;6.692;2023-07-13T15:11:07;23.50;90.70
53752;DHT22;41095;53.090;6.692;2023-07-13T15:13:33;23.60;90.30
53752;DHT22;41095;53.090;6.692;2023-07-13T15:16:00;23.80;90.50
53752;DHT22;41095;53.090;6.692;2023-07-13T15:18:26;24.00;90.70
53752;DHT22;41095;53.090;6.692;2023-07-13T15:20:53;23.90;90.50
53752;DHT22;41095;53.090;6.692;2023-07-13T15:23:22;23.80;90.60
53752;DHT22;41095;53.090;6.692;2023-07-13T15:25:51;23.70;90.50
53752;DHT22;41095;53.090;6.692;2023-07-13T15:28:17;23.80;90.80
53752;DHT22;41095;53.090;6.692;2023-07-13T15:30:47;23.90;90.90
53752;DHT22;41095;53.090;6.692;2023-07-13T15:33:27;23.60;90.60
53752;DHT22;41095;53.090;6.692;2023-07-13T15:35:54;23.60;90.20
53752;DHT22;41095;53.090;6.692;2023-07-13T15:38:23;23.50;90.10
53752;DHT22;41095;53.090;6.692;2023-07-13T15:40:50;23.40;90.40
53752;DHT22;41095;53.090;6.692;2023-07-13T15:43:16;23.40;90.60
53752;DHT22;41095;53.090;6.692;2023-07-13T15:45:42;23.60;90.90
53752;DHT22;41095;53.090;6.692;2023-07-13T15:48:19;23.60;90.90
53752;DHT22;41095;53.090;6.692;2023-07-13T15:50:51;23.80;90.70
53752;DHT22;41095;53.090;6.692;2023-07-13T15:53:23;23.80;90.90
53752;DHT22;41095;53.090;6.692;2023-07-13T15:55:50;23.70;90.20
53752;DHT22;41095;53.090;6.692;2023-07-13T15:58:16;23.80;90.50
53752;DHT22;41095;53.090;6.692;2023-07-13T16:00:42;23.80;90.60
53752;DHT22;41095;53.090;6.692;2023-07-13T16:03:08;23.90;90.50
53752;DHT22;41095;53.090;6.692;2023-07-13T16:05:34;23.80;90.30
53752;DHT22;41095;53.090;6.692;2023-07-13T16:08:01;23.80;90.70
53752;DHT22;41095;53.090;6.692;2023-07-13T16:10:35;23.80;90.60
53752;DHT22;41095;53.090;6.692;2023-07-13T16:13:04;23.80;90.30
53752;DHT22;41095;53.090;6.692;2023-07-13T16:15:33;23.70;90.60
53752;DHT22;41095;53.090;6.692;2023-07-13T16:17:58;23.70;90.80
53752;DHT22;41095;53.090;6.692;2023-07-13T16:20:24;23.80;90.80
53752;DHT22;41095;53.090;6.692;2023-07-13T16:22:53;23.80;91.10
53752;DHT22;41095;53.090;6.692;2023-07-13T16:25:24;23.80;91.10
53752;DHT22;41095;53.090;6.692;2023-07-13T16:27:53;23.60;90.90
53752;DHT22;41095;53.090;6.692;2023-07-13T16:30:24;23.40;90.80
53752;DHT22;41095;53.090;6.692;2023-07-13T16:32:52;23.30;91.30
53752;DHT22;41095;53.090;6.692;2023-07-13T16:35:22;23.20;90.90
53752;DHT22;41095;53.090;6.692;2023-07-13T16:37:48;23.20;91.40